createdAt,value
2022-11-20T00:00:38.783Z,97.60
2022-11-20T00:03:24.905Z,97.80
2022-11-20T00:06:13.601Z,97.70
2022-11-20T00:09:02.332Z,97.80
2022-11-20T00:11:48.493Z,97.90
2022-11-20T00:14:34.914Z,97.90
2022-11-20T00:17:20.915Z,98.00
2022-11-20T00:20:07.344Z,97.90
2022-11-20T00:22:53.938Z,98.20
2022-11-20T00:25:40.312Z,97.90
2022-11-20T00:28:26.545Z,97.90
2022-11-20T00:31:15.186Z,97.90
2022-11-20T00:34:01.410Z,97.80
2022-11-20T00:36:47.602Z,98.00
2022-11-20T00:39:33.907Z,98.10
2022-11-20T00:42:20.320Z,98.20
2022-11-20T00:45:07.147Z,98.10
2022-11-20T00:47:52.930Z,98.00
2022-11-20T00:50:38.853Z,98.00
2022-11-20T00:53:25.384Z,97.90
2022-11-20T00:56:14.411Z,98.10
2022-11-20T00:59:02.191Z,98.10
2022-11-20T01:01:48.440Z,98.20
2022-11-20T01:04:34.536Z,98.10
2022-11-20T01:07:20.468Z,98.20
2022-11-20T01:10:06.957Z,98.10
2022-11-20T01:13:12.963Z,98.20
2022-11-20T01:16:08.305Z,98.20
2022-11-20T01:18:57.439Z,98.00
2022-11-20T01:21:45.492Z,97.90
2022-11-20T01:24:31.577Z,98.10
2022-11-20T01:27:17.885Z,98.00
2022-11-20T01:30:04.255Z,98.10
2022-11-20T01:32:50.433Z,98.00
2022-11-20T01:35:36.425Z,97.60
2022-11-20T01:38:23.817Z,97.70
2022-11-20T01:41:11.123Z,97.70
2022-11-20T01:43:57.146Z,97.70
2022-11-20T01:47:10.445Z,97.90
2022-11-20T01:50:05.515Z,97.70
2022-11-20T01:53:02.975Z,97.60
2022-11-20T01:55:50.943Z,97.60
2022-11-20T01:58:41.427Z,97.70
2022-11-20T02:01:27.762Z,97.70
2022-11-20T02:04:15.398Z,97.80
2022-11-20T02:07:03.784Z,98.00
2022-11-20T02:09:52.841Z,97.80
2022-11-20T02:12:59.618Z,97.60
2022-11-20T02:15:46.201Z,97.80
2022-11-20T02:18:32.333Z,97.80
2022-11-20T02:21:30.374Z,97.80
2022-11-20T02:24:19.542Z,97.80
2022-11-20T02:27:13.968Z,97.60
2022-11-20T02:30:08.652Z,97.50
2022-11-20T02:32:54.799Z,97.50
2022-11-20T02:35:43.748Z,97.60
2022-11-20T02:38:29.558Z,97.60
2022-11-20T02:41:15.603Z,97.70
2022-11-20T02:44:02.123Z,97.50
2022-11-20T02:46:48.656Z,97.60
2022-11-20T02:49:34.762Z,97.60
2022-11-20T02:52:20.705Z,97.40
2022-11-20T02:55:07.337Z,97.40
2022-11-20T02:57:53.593Z,97.50
2022-11-20T03:00:39.813Z,97.40
2022-11-20T03:03:26.113Z,97.40
2022-11-20T03:06:12.544Z,97.40
2022-11-20T03:08:58.572Z,97.40
2022-11-20T03:11:44.665Z,97.50
2022-11-20T03:14:30.501Z,97.20
2022-11-20T03:17:17.341Z,97.20
2022-11-20T03:20:04.187Z,97.40
2022-11-20T03:22:50.384Z,97.40
2022-11-20T03:25:36.554Z,97.10
2022-11-20T03:28:22.816Z,97.00
2022-11-20T03:31:14.106Z,97.10
2022-11-20T03:34:01.361Z,97.30
2022-11-20T03:36:47.518Z,97.10
2022-11-20T03:39:33.999Z,96.90
2022-11-20T03:42:38.500Z,97.00
2022-11-20T03:45:24.800Z,97.00
2022-11-20T03:48:11.036Z,97.00
2022-11-20T03:51:14.857Z,96.90
2022-11-20T03:54:08.854Z,96.80
2022-11-20T03:56:54.914Z,96.70
2022-11-20T03:59:40.989Z,96.80
2022-11-20T04:02:26.995Z,96.70
2022-11-20T04:05:12.993Z,96.60
2022-11-20T04:07:59.052Z,96.60
2022-11-20T04:10:44.888Z,96.50
2022-11-20T04:13:30.989Z,96.50
2022-11-20T04:16:17.828Z,96.30
2022-11-20T04:19:04.809Z,96.20
2022-11-20T04:21:50.784Z,96.30
2022-11-20T04:24:36.824Z,96.40
2022-11-20T04:27:22.803Z,96.30
2022-11-20T04:30:09.225Z,96.30
2022-11-20T04:32:55.156Z,96.50
2022-11-20T04:35:41.153Z,96.10
2022-11-20T04:38:27.528Z,96.10
2022-11-20T04:41:19.299Z,96.10
2022-11-20T04:44:06.655Z,96.10
2022-11-20T04:46:52.721Z,96.20
2022-11-20T04:49:38.900Z,96.20
2022-11-20T04:52:25.403Z,96.30
2022-11-20T04:55:11.509Z,96.30
2022-11-20T04:57:57.561Z,96.20
2022-11-20T05:00:43.680Z,96.30
2022-11-20T05:03:29.742Z,96.40
2022-11-20T05:06:19.727Z,96.40
2022-11-20T05:09:05.906Z,96.50
2022-11-20T05:11:51.855Z,96.50
2022-11-20T05:14:37.960Z,96.50
2022-11-20T05:17:23.829Z,96.50
2022-11-20T05:20:10.506Z,96.60
2022-11-20T05:23:00.146Z,96.60
2022-11-20T05:25:46.257Z,96.50
2022-11-20T05:28:33.272Z,96.40
2022-11-20T05:31:26.755Z,96.60
2022-11-20T05:34:14.306Z,96.50
2022-11-20T05:37:00.350Z,96.50
2022-11-20T05:39:46.181Z,96.40
2022-11-20T05:42:32.686Z,96.30
2022-11-20T05:45:18.757Z,96.30
2022-11-20T05:48:05.093Z,96.40
2022-11-20T05:50:51.419Z,96.40
2022-11-20T05:53:37.879Z,96.40
2022-11-20T05:56:24.082Z,96.40
2022-11-20T05:59:10.252Z,96.50
2022-11-20T06:01:56.207Z,96.50
2022-11-20T06:04:42.180Z,96.50
2022-11-20T06:07:28.273Z,96.30
2022-11-20T06:10:14.402Z,96.40
2022-11-20T06:13:00.347Z,96.30
2022-11-20T06:15:53.853Z,96.30
2022-11-20T06:18:40.149Z,96.30
2022-11-20T06:21:26.144Z,96.30
2022-11-20T06:24:12.163Z,96.30
2022-11-20T06:26:58.032Z,96.20
2022-11-20T06:29:45.041Z,96.20
2022-11-20T06:32:31.164Z,96.20
2022-11-20T06:35:17.212Z,96.30
2022-11-20T06:38:03.301Z,96.30
2022-11-20T06:40:49.451Z,96.10
2022-11-20T06:43:35.356Z,96.00
2022-11-20T06:46:22.163Z,96.10
2022-11-20T06:49:08.144Z,96.10
2022-11-20T06:51:54.132Z,96.10
2022-11-20T06:54:40.082Z,96.00
2022-11-20T06:57:26.014Z,95.80
2022-11-20T07:00:12.885Z,95.80
2022-11-20T07:02:58.976Z,95.60
2022-11-20T07:05:46.139Z,95.80
2022-11-20T07:08:32.626Z,95.20
2022-11-20T07:11:18.953Z,95.20
2022-11-20T07:14:05.104Z,95.00
2022-11-20T07:16:51.353Z,95.20
2022-11-20T07:19:37.460Z,95.10
2022-11-20T07:22:23.411Z,95.00
2022-11-20T07:25:10.552Z,95.00
2022-11-20T07:28:00.685Z,94.80
2022-11-20T07:30:54.129Z,95.00
2022-11-20T07:33:40.447Z,94.60
2022-11-20T07:36:26.438Z,94.80
2022-11-20T07:39:12.401Z,94.90
2022-11-20T07:41:58.328Z,94.70
2022-11-20T07:44:44.378Z,94.60
2022-11-20T07:47:35.578Z,94.90
2022-11-20T07:50:22.080Z,94.80
2022-11-20T07:53:08.786Z,94.80
2022-11-20T07:55:54.980Z,94.70
2022-11-20T07:58:41.110Z,94.90
2022-11-20T08:01:27.049Z,95.20
2022-11-20T08:04:12.977Z,95.00
2022-11-20T08:06:59.017Z,95.00
2022-11-20T08:09:44.813Z,94.60
2022-11-20T08:12:49.398Z,94.70
2022-11-20T08:15:36.223Z,94.80
2022-11-20T08:18:31.769Z,94.60
2022-11-20T08:21:18.532Z,94.80
2022-11-20T08:24:05.042Z,94.60
2022-11-20T08:26:51.063Z,94.60
2022-11-20T08:29:36.913Z,94.70
2022-11-20T08:32:22.834Z,94.80
2022-11-20T08:35:09.332Z,94.50
2022-11-20T08:37:55.378Z,94.70
2022-11-20T08:40:41.472Z,94.40
2022-11-20T08:43:27.468Z,94.40
2022-11-20T08:46:13.713Z,94.60
2022-11-20T08:48:59.715Z,93.90
2022-11-20T08:51:46.157Z,93.90
2022-11-20T08:54:32.385Z,94.10
2022-11-20T08:57:18.392Z,94.10
2022-11-20T09:00:08.543Z,93.80
2022-11-20T09:02:55.348Z,93.80
2022-11-20T09:05:41.860Z,93.90
2022-11-20T09:08:29.449Z,93.60
2022-11-20T09:11:15.677Z,93.90
2022-11-20T09:14:03.683Z,93.40
2022-11-20T09:16:50.303Z,93.60
2022-11-20T09:19:36.611Z,93.80
2022-11-20T09:22:22.821Z,93.30
2022-11-20T09:25:09.170Z,93.20
2022-11-20T09:28:01.522Z,93.40
2022-11-20T09:30:47.623Z,93.10
2022-11-20T09:33:33.544Z,93.30
2022-11-20T09:36:19.780Z,92.80
2022-11-20T09:39:05.741Z,92.90
2022-11-20T09:42:14.723Z,92.50
2022-11-20T09:45:20.161Z,93.10
2022-11-20T09:48:27.825Z,92.60
2022-11-20T09:51:54.757Z,92.80
2022-11-20T09:54:42.169Z,92.70
2022-11-20T09:57:37.203Z,92.40
2022-11-20T10:00:24.446Z,92.50
2022-11-20T10:03:19.757Z,92.10
2022-11-20T10:06:09.527Z,91.70
2022-11-20T10:09:04.967Z,92.00
2022-11-20T10:11:59.950Z,92.60
2022-11-20T10:15:30.630Z,91.90
2022-11-20T10:18:44.835Z,91.80
2022-11-20T10:21:55.021Z,91.30
2022-11-20T10:24:52.287Z,91.00
2022-11-20T10:28:03.676Z,91.10
2022-11-20T10:30:58.057Z,91.10
2022-11-20T10:34:11.087Z,90.90
2022-11-20T10:37:04.702Z,91.40
2022-11-20T10:39:51.081Z,91.00
2022-11-20T10:42:51.873Z,90.90
2022-11-20T10:45:49.432Z,91.00
2022-11-20T10:48:45.299Z,90.40
2022-11-20T10:51:38.925Z,90.70
2022-11-20T10:54:50.644Z,90.20
2022-11-20T10:58:12.345Z,90.00
2022-11-20T11:01:06.486Z,90.60
2022-11-20T11:03:55.660Z,90.60
2022-11-20T11:06:47.869Z,90.00
2022-11-20T11:09:40.016Z,90.10
2022-11-20T11:12:28.518Z,90.40
2022-11-20T11:15:27.157Z,90.20
2022-11-20T11:18:23.913Z,90.70
2022-11-20T11:21:10.465Z,90.20
2022-11-20T11:24:34.852Z,89.60
2022-11-20T11:27:17.590Z,90.00
2022-11-20T11:30:16.037Z,89.70
2022-11-20T11:33:07.650Z,90.00
2022-11-20T11:36:03.576Z,89.80
2022-11-20T11:38:53.925Z,89.20
2022-11-20T11:41:40.069Z,89.10
2022-11-20T11:44:48.918Z,88.60
2022-11-20T11:47:46.681Z,87.60
2022-11-20T11:50:32.722Z,88.10
2022-11-20T11:53:24.694Z,88.00
2022-11-20T11:56:14.520Z,86.70
2022-11-20T11:59:07.041Z,86.30
2022-11-20T12:01:58.769Z,87.00
2022-11-20T12:04:51.917Z,87.20
2022-11-20T12:07:46.980Z,88.60
2022-11-20T12:10:35.072Z,89.70
2022-11-20T12:13:39.928Z,90.30
2022-11-20T12:16:26.088Z,91.50
2022-11-20T12:19:14.273Z,91.90
2022-11-20T12:22:22.502Z,92.20
2022-11-20T12:25:36.300Z,93.00
2022-11-20T12:28:38.567Z,93.20
2022-11-20T12:31:37.517Z,93.30
2022-11-20T12:34:37.360Z,93.00
2022-11-20T12:38:06.108Z,92.20
2022-11-20T12:41:04.331Z,91.70
2022-11-20T12:44:41.081Z,91.90
2022-11-20T12:47:39.620Z,92.20
2022-11-20T12:50:32.547Z,91.80
2022-11-20T12:53:33.171Z,91.90
2022-11-20T12:56:42.417Z,91.80
2022-11-20T12:59:53.247Z,92.20
2022-11-20T13:02:47.980Z,92.10
2022-11-20T13:06:04.410Z,92.50
2022-11-20T13:08:56.928Z,92.50
2022-11-20T13:12:00.970Z,93.20
2022-11-20T13:15:16.367Z,93.70
2022-11-20T13:18:05.025Z,93.50
2022-11-20T13:20:52.102Z,93.40
2022-11-20T13:23:38.160Z,94.00
2022-11-20T13:26:25.042Z,93.70
2022-11-20T13:29:21.281Z,93.60
2022-11-20T13:32:22.124Z,93.70
2022-11-20T13:35:10.240Z,93.90
2022-11-20T13:38:02.702Z,94.00
2022-11-20T13:40:59.237Z,94.30
2022-11-20T13:43:47.928Z,94.20
2022-11-20T13:46:40.033Z,94.40
2022-11-20T13:49:45.187Z,94.50
2022-11-20T13:53:00.139Z,94.50
2022-11-20T13:56:00.810Z,94.60
2022-11-20T13:59:07.754Z,94.40
2022-11-20T14:01:56.365Z,94.50
2022-11-20T14:04:54.658Z,94.40
2022-11-20T14:07:44.066Z,94.30
2022-11-20T14:10:32.460Z,94.10
2022-11-20T14:13:21.068Z,93.90
2022-11-20T14:16:07.066Z,94.20
2022-11-20T14:18:53.437Z,94.00
2022-11-20T14:21:39.329Z,94.30
2022-11-20T14:24:26.181Z,94.20
2022-11-20T14:27:22.653Z,94.00
2022-11-20T14:30:24.136Z,94.00
2022-11-20T14:33:15.557Z,94.20
2022-11-20T14:36:01.479Z,94.20
2022-11-20T14:38:48.060Z,94.10
2022-11-20T14:41:34.274Z,93.90
2022-11-20T14:44:27.305Z,93.80
2022-11-20T14:47:16.376Z,94.10
2022-11-20T14:50:07.352Z,94.30
2022-11-20T14:52:58.590Z,94.20
2022-11-20T14:55:44.658Z,94.10
2022-11-20T14:58:35.259Z,93.80
2022-11-20T15:01:27.861Z,94.10
2022-11-20T15:04:14.140Z,93.80
2022-11-20T15:07:00.962Z,93.80
2022-11-20T15:09:46.855Z,93.60
2022-11-20T15:12:35.712Z,93.60
2022-11-20T15:15:31.694Z,93.50
2022-11-20T15:18:23.856Z,93.60
2022-11-20T15:21:15.323Z,93.80
2022-11-20T15:24:01.891Z,93.70
2022-11-20T15:26:48.713Z,93.80
2022-11-20T15:29:35.149Z,93.80
2022-11-20T15:32:21.297Z,93.80
2022-11-20T15:35:07.614Z,93.80
2022-11-20T15:37:53.481Z,93.80
2022-11-20T15:40:39.472Z,93.90
2022-11-20T15:43:25.493Z,93.80
2022-11-20T15:46:15.995Z,93.30
2022-11-20T15:49:02.073Z,93.50
2022-11-20T15:51:49.940Z,93.30
2022-11-20T15:54:36.144Z,93.30
2022-11-20T15:57:22.080Z,93.50
2022-11-20T16:00:08.813Z,93.50
2022-11-20T16:02:56.928Z,94.00
2022-11-20T16:05:43.357Z,94.40
2022-11-20T16:08:29.376Z,94.70
2022-11-20T16:11:17.347Z,95.20
2022-11-20T16:14:23.414Z,95.20
2022-11-20T16:17:09.840Z,95.40
2022-11-20T16:19:55.700Z,95.40
2022-11-20T16:22:41.687Z,95.40
2022-11-20T16:25:28.708Z,95.50
2022-11-20T16:28:18.912Z,95.30
2022-11-20T16:31:17.784Z,95.60
2022-11-20T16:34:23.122Z,95.30
2022-11-20T16:37:09.643Z,95.60
2022-11-20T16:39:57.304Z,95.70
2022-11-20T16:42:43.519Z,95.70
2022-11-20T16:45:33.717Z,95.90
2022-11-20T16:48:20.470Z,95.90
2022-11-20T16:51:10.217Z,95.90
2022-11-20T16:53:56.589Z,96.10
2022-11-20T16:56:43.141Z,95.80
2022-11-20T16:59:29.273Z,95.60
2022-11-20T17:02:15.693Z,95.60
2022-11-20T17:05:02.132Z,95.70
2022-11-20T17:07:48.307Z,95.90
2022-11-20T17:10:34.435Z,96.10
2022-11-20T17:13:20.645Z,96.10
2022-11-20T17:16:09.849Z,96.30
2022-11-20T17:19:02.489Z,96.40
2022-11-20T17:21:49.774Z,96.30
2022-11-20T17:24:35.900Z,96.60
2022-11-20T17:27:21.936Z,96.70
2022-11-20T17:30:08.572Z,96.50
2022-11-20T17:32:54.552Z,96.30
2022-11-20T17:35:40.633Z,96.40
2022-11-20T17:38:26.549Z,96.30
2022-11-20T17:41:18.176Z,96.40
2022-11-20T17:44:04.308Z,95.50
2022-11-20T17:46:50.124Z,95.50
2022-11-20T17:49:36.116Z,95.50
2022-11-20T17:52:22.792Z,96.00
2022-11-20T17:55:09.211Z,96.60
2022-11-20T17:58:02.773Z,97.20
2022-11-20T18:00:48.757Z,97.40
2022-11-20T18:03:34.800Z,97.60
2022-11-20T18:06:23.509Z,97.60
2022-11-20T18:09:10.220Z,97.70
2022-11-20T18:11:56.552Z,97.70
2022-11-20T18:14:43.621Z,97.50
2022-11-20T18:17:29.880Z,97.20
2022-11-20T18:20:35.341Z,97.20
2022-11-20T18:23:22.353Z,97.20
2022-11-20T18:26:08.236Z,97.00
2022-11-20T18:28:54.721Z,97.10
2022-11-20T18:31:41.030Z,96.80
2022-11-20T18:34:27.905Z,96.70
2022-11-20T18:37:16.484Z,96.70
2022-11-20T18:40:02.501Z,96.60
2022-11-20T18:43:06.919Z,96.50
2022-11-20T18:46:02.648Z,96.30
2022-11-20T18:48:48.633Z,96.20
2022-11-20T18:51:35.036Z,96.10
2022-11-20T18:54:21.895Z,96.20
2022-11-20T18:57:10.411Z,96.10
2022-11-20T19:00:03.462Z,96.20
2022-11-20T19:02:54.609Z,96.30
2022-11-20T19:05:40.704Z,96.10
2022-11-20T19:08:27.105Z,96.10
2022-11-20T19:11:13.780Z,96.10
2022-11-20T19:13:59.727Z,96.20
2022-11-20T19:16:45.690Z,96.30
2022-11-20T19:19:31.550Z,96.30
2022-11-20T19:22:17.584Z,96.40
2022-11-20T19:25:04.065Z,96.50
2022-11-20T19:27:50.322Z,96.40
2022-11-20T19:30:36.381Z,96.40
2022-11-20T19:33:22.713Z,96.50
2022-11-20T19:36:24.138Z,96.50
2022-11-20T19:39:11.083Z,96.40
2022-11-20T19:41:57.305Z,96.40
2022-11-20T19:44:43.414Z,96.40
2022-11-20T19:47:52.736Z,96.60
2022-11-20T19:50:35.576Z,96.60
2022-11-20T19:53:21.552Z,96.70
2022-11-20T19:56:08.418Z,96.70
2022-11-20T19:58:55.334Z,96.60
2022-11-20T20:01:41.552Z,96.50
2022-11-20T20:04:27.666Z,96.50
2022-11-20T20:07:13.593Z,96.50
2022-11-20T20:09:59.987Z,96.50
2022-11-20T20:12:46.354Z,96.60
2022-11-20T20:15:32.890Z,96.50
2022-11-20T20:18:19.157Z,96.50
2022-11-20T20:21:07.481Z,96.40
2022-11-20T20:23:54.937Z,96.40
2022-11-20T20:26:41.382Z,96.30
2022-11-20T20:29:27.558Z,96.20
2022-11-20T20:32:13.714Z,96.20
2022-11-20T20:35:00.001Z,96.20
2022-11-20T20:37:46.248Z,96.20
2022-11-20T20:40:32.140Z,96.10
2022-11-20T20:43:18.165Z,96.00
2022-11-20T20:46:04.226Z,95.80
2022-11-20T20:48:54.168Z,95.70
2022-11-20T20:51:40.718Z,95.80
2022-11-20T20:54:30.271Z,95.80
2022-11-20T20:57:19.097Z,95.60
2022-11-20T21:00:07.084Z,95.60
2022-11-20T21:02:53.248Z,95.40
2022-11-20T21:05:39.335Z,95.40
2022-11-20T21:08:28.209Z,95.20
2022-11-20T21:11:16.725Z,95.10
2022-11-20T21:14:02.611Z,95.20
2022-11-20T21:16:48.744Z,94.90
2022-11-20T21:19:34.988Z,94.90
2022-11-20T21:22:20.984Z,94.70
2022-11-20T21:25:07.487Z,94.30
2022-11-20T21:27:53.417Z,94.00
2022-11-20T21:30:39.658Z,93.70
2022-11-20T21:33:25.768Z,93.60
2022-11-20T21:36:14.628Z,93.40
2022-11-20T21:39:01.167Z,93.20
2022-11-20T21:41:47.223Z,93.10
2022-11-20T21:44:33.062Z,93.10
2022-11-20T21:47:19.242Z,93.30
2022-11-20T21:50:05.312Z,93.80
2022-11-20T21:52:51.377Z,94.30
2022-11-20T21:55:37.381Z,95.10
2022-11-20T21:58:23.400Z,96.00
2022-11-20T22:01:17.470Z,96.50
2022-11-20T22:04:04.077Z,96.60
2022-11-20T22:06:50.386Z,97.20
2022-11-20T22:09:36.489Z,97.20
2022-11-20T22:12:22.665Z,97.40
2022-11-20T22:15:09.265Z,97.50
2022-11-20T22:18:13.128Z,97.80
2022-11-20T22:21:09.253Z,98.10
2022-11-20T22:23:56.203Z,98.60
2022-11-20T22:26:42.621Z,98.60
2022-11-20T22:29:29.037Z,99.00
2022-11-20T22:32:14.961Z,99.20
2022-11-20T22:35:01.102Z,99.50
2022-11-20T22:37:50.085Z,99.70
2022-11-20T22:40:36.270Z,99.70
2022-11-20T22:43:22.397Z,99.90
2022-11-20T22:46:11.919Z,99.90
2022-11-20T22:49:00.466Z,99.90
2022-11-20T22:51:46.485Z,99.90
2022-11-20T22:54:32.575Z,99.90
2022-11-20T22:57:18.548Z,99.90
2022-11-20T23:00:05.040Z,99.90
2022-11-20T23:02:51.580Z,99.90
2022-11-20T23:05:37.449Z,99.90
2022-11-20T23:08:23.303Z,99.90
2022-11-20T23:11:15.273Z,99.90
2022-11-20T23:14:04.440Z,99.90
2022-11-20T23:16:50.751Z,99.90
2022-11-20T23:19:36.646Z,99.90
2022-11-20T23:22:22.735Z,99.90
2022-11-20T23:25:09.227Z,99.90
2022-11-20T23:27:55.284Z,99.90
2022-11-20T23:30:41.488Z,99.90
2022-11-20T23:33:27.719Z,99.90
2022-11-20T23:36:14.591Z,99.90
2022-11-20T23:39:00.943Z,99.90
2022-11-20T23:41:46.778Z,99.90
2022-11-20T23:44:32.659Z,99.90
2022-11-20T23:47:18.827Z,99.90
2022-11-20T23:50:05.480Z,99.90
2022-11-20T23:52:51.504Z,99.90
2022-11-20T23:55:37.974Z,99.90
2022-11-20T23:58:26.215Z,99.90
